Time;durP1;ratioP1;P1;durP2;ratioP2;P2;SDS_P1;SDS_P2;PMS_P1;PMS_P2;Temp;Humidity;BMP_temperature;BMP_pressure;BME280_temperature;BME280_humidity;BME280_pressure;Samples;Min_cycle;Max_cycle;Signal;HPM_P1;HPM_P2
2022/06/02 00:01:09;;;;;;;3.33;3.03;;;15.80;99.90;;;;;;5032873;28;20299;-56
2022/06/02 00:03:45;;;;;;;3.03;2.80;;;15.70;99.90;;;;;;5032485;28;20233;-58
2022/06/02 00:06:26;;;;;;;3.20;2.90;;;15.60;99.90;;;;;;5032685;28;20234;-58
2022/06/02 00:09:06;;;;;;;3.60;3.00;;;15.60;99.90;;;;;;5032752;28;20549;-56
2022/06/02 00:11:51;;;;;;;3.20;2.90;;;15.50;99.90;;;;;;5032650;28;20241;-57
2022/06/02 00:15:08;;;;;;;3.50;3.20;;;15.60;99.90;;;;;;5032368;28;20274;-57
2022/06/02 00:18:11;;;;;;;3.80;3.50;;;15.60;99.90;;;;;;4999650;28;20677;-56
2022/06/02 00:20:44;;;;;;;3.70;3.30;;;15.60;99.90;;;;;;5032372;28;20215;-58
2022/06/02 00:23:30;;;;;;;3.20;2.90;;;15.60;99.90;;;;;;5032375;28;20175;-59
2022/06/02 00:26:07;;;;;;;3.83;2.70;;;15.70;99.90;;;;;;5032078;28;20665;-58
2022/06/02 00:29:04;;;;;;;3.23;2.57;;;15.70;99.90;;;;;;5032006;28;20265;-57
2022/06/02 00:31:29;;;;;;;2.63;2.43;;;15.70;99.90;;;;;;5032433;28;20237;-56
2022/06/02 00:33:57;;;;;;;2.80;2.60;;;15.60;99.90;;;;;;5031872;28;20172;-58
2022/06/02 00:37:04;;;;;;;2.50;2.30;;;15.60;99.90;;;;;;5032200;28;20703;-56
2022/06/02 00:39:32;;;;;;;3.13;2.83;;;15.60;99.90;;;;;;5031364;28;20219;-57
2022/06/02 00:42:26;;;;;;;3.77;2.57;;;15.50;99.90;;;;;;5032025;28;20179;-57
2022/06/02 00:45:01;;;;;;;3.70;2.87;;;15.50;99.90;;;;;;5031791;28;20209;-56
2022/06/02 00:47:46;;;;;;;4.50;2.77;;;15.40;99.90;;;;;;5031894;28;20174;-56
2022/06/02 00:50:29;;;;;;;2.70;2.50;;;15.30;99.90;;;;;;5031800;28;20695;-57
2022/06/02 00:53:19;;;;;;;3.00;2.70;;;15.30;99.90;;;;;;5031912;28;20272;-54
2022/06/02 00:59:11;;;;;;;3.30;2.50;;;15.20;99.90;;;;;;5031598;28;20266;-57
2022/06/02 01:01:37;;;;;;;2.70;2.50;;;15.20;99.90;;;;;;5031738;28;20537;-58
2022/06/02 01:04:15;;;;;;;4.00;2.70;;;15.20;99.90;;;;;;5031391;28;20180;-57
2022/06/02 01:07:09;;;;;;;3.20;2.97;;;15.20;99.90;;;;;;5031604;28;20179;-55
2022/06/02 01:09:42;;;;;;;2.70;2.50;;;15.20;99.90;;;;;;5031466;28;20194;-59
2022/06/02 01:12:58;;;;;;;2.70;2.50;;;15.20;99.90;;;;;;5031612;28;20259;-57
2022/06/02 01:15:43;;;;;;;2.73;2.53;;;15.20;99.90;;;;;;4970127;28;20240;-57
2022/06/02 01:18:14;;;;;;;2.53;2.40;;;15.20;99.90;;;;;;4970291;28;20757;-55
2022/06/02 01:20:45;;;;;;;2.93;2.57;;;15.20;99.90;;;;;;4970272;28;20181;-57
2022/06/02 01:23:41;;;;;;;2.80;2.60;;;15.20;99.90;;;;;;4970236;28;20630;-59
2022/06/02 01:26:25;;;;;;;2.67;2.43;;;15.20;99.90;;;;;;4970365;28;20778;-57
2022/06/02 01:29:31;;;;;;;3.00;2.70;;;15.20;99.90;;;;;;4970135;28;20555;-56
2022/06/02 01:32:09;;;;;;;2.33;2.23;;;15.20;99.90;;;;;;4970190;28;20178;-59
2022/06/02 01:34:46;;;;;;;2.53;2.33;;;15.30;99.90;;;;;;4969892;28;20254;-59
2022/06/02 01:37:28;;;;;;;2.60;2.40;;;15.30;99.90;;;;;;4970249;28;20677;-59
2022/06/02 01:40:13;;;;;;;2.67;2.47;;;15.30;99.90;;;;;;4969230;28;20225;-57
2022/06/02 01:43:09;;;;;;;2.53;2.33;;;15.30;99.90;;;;;;4970148;28;20178;-59
2022/06/02 01:45:38;;;;;;;3.17;2.63;;;15.30;99.90;;;;;;4990610;28;20183;-59
2022/06/02 01:48:29;;;;;;;2.50;2.30;;;15.40;99.90;;;;;;5030905;28;20172;-58
2022/06/02 01:51:07;;;;;;;2.53;2.33;;;15.40;99.90;;;;;;5031106;28;20196;-57
2022/06/02 01:53:56;;;;;;;2.50;2.30;;;15.40;99.90;;;;;;5031179;28;20190;-52
2022/06/02 01:56:41;;;;;;;2.50;2.30;;;15.40;99.90;;;;;;5031051;28;20168;-58
2022/06/02 02:02:10;;;;;;;2.87;2.57;;;15.40;99.90;;;;;;5010023;28;20228;-56
2022/06/02 02:04:54;;;;;;;2.53;2.37;;;15.40;99.90;;;;;;5010868;28;20173;-57
2022/06/02 02:07:40;;;;;;;2.97;2.67;;;15.30;99.90;;;;;;5011493;28;20175;-55
2022/06/02 02:10:16;;;;;;;2.20;1.97;;;15.30;99.90;;;;;;5011462;28;20315;-55
2022/06/02 02:12:57;;;;;;;4.53;2.50;;;15.30;99.90;;;;;;5011405;28;20264;-56
2022/06/02 02:15:46;;;;;;;2.67;2.47;;;15.30;99.90;;;;;;5010160;28;20538;-55
2022/06/02 02:18:23;;;;;;;2.50;2.30;;;15.30;99.90;;;;;;5009945;28;20205;-55
2022/06/02 02:21:12;;;;;;;2.37;2.23;;;15.30;99.90;;;;;;5010027;28;20195;-57
2022/06/02 02:23:58;;;;;;;2.53;2.33;;;15.30;99.90;;;;;;5003543;28;20185;-57
2022/06/02 02:26:36;;;;;;;2.30;2.10;;;15.30;99.90;;;;;;5011273;28;20619;-53
2022/06/02 02:29:20;;;;;;;2.80;2.50;;;15.30;99.90;;;;;;5011251;28;20238;-56
2022/06/02 02:32:01;;;;;;;2.60;2.40;;;15.30;99.90;;;;;;5011318;28;20176;-53
2022/06/02 02:34:39;;;;;;;2.83;2.60;;;15.30;99.90;;;;;;5011025;28;20251;-57
2022/06/02 02:37:42;;;;;;;2.40;2.20;;;15.30;99.90;;;;;;5011255;28;20192;-54
2022/06/02 02:40:21;;;;;;;2.70;2.50;;;15.30;99.90;;;;;;4977645;28;20252;-57
2022/06/02 02:42:56;;;;;;;2.70;2.50;;;15.30;99.90;;;;;;5011270;28;20259;-56
2022/06/02 02:45:35;;;;;;;2.73;2.47;;;15.30;99.90;;;;;;5010934;28;20164;-55
2022/06/02 02:48:30;;;;;;;3.27;2.97;;;15.30;99.90;;;;;;5011182;28;20199;-57
2022/06/02 02:51:11;;;;;;;2.97;2.77;;;15.30;99.90;;;;;;5011706;28;20215;-54
2022/06/02 02:54:08;;;;;;;3.30;3.00;;;15.20;99.90;;;;;;5014395;28;20202;-57
2022/06/02 02:57:11;;;;;;;2.57;2.37;;;15.10;99.90;;;;;;4953832;29;20205;-56
2022/06/02 02:59:55;;;;;;;2.43;2.23;;;15.10;99.90;;;;;;4953561;29;20257;-52
2022/06/02 03:02:49;;;;;;;3.10;2.80;;;15.00;99.90;;;;;;4953901;29;20217;-53
2022/06/02 03:05:46;;;;;;;3.00;2.40;;;14.90;99.90;;;;;;4953574;29;20178;-53
2022/06/02 03:08:31;;;;;;;3.23;2.80;;;14.90;99.90;;;;;;4859234;29;20288;-55
2022/06/02 03:11:10;;;;;;;3.10;2.90;;;14.80;99.90;;;;;;4859428;29;20198;-53
2022/06/02 03:14:02;;;;;;;2.83;2.63;;;14.60;99.90;;;;;;4859078;29;20193;-52
2022/06/02 03:16:31;;;;;;;3.03;2.83;;;14.60;99.90;;;;;;4859391;29;20271;-55
2022/06/02 03:19:19;;;;;;;2.93;2.73;;;14.60;99.90;;;;;;4859165;29;20730;-54
2022/06/02 03:22:02;;;;;;;4.87;2.80;;;14.50;99.90;;;;;;4843967;29;20302;-52
2022/06/02 03:24:48;;;;;;;2.90;2.70;;;14.50;99.90;;;;;;4858900;29;20699;-54
2022/06/02 03:27:22;;;;;;;2.60;2.40;;;14.60;99.90;;;;;;4859147;29;20558;-53
2022/06/02 03:30:01;;;;;;;2.90;2.70;;;14.50;99.90;;;;;;4859073;29;20679;-57
2022/06/02 03:32:51;;;;;;;2.83;2.63;;;14.50;99.90;;;;;;4865425;29;20189;-54
2022/06/02 03:35:28;;;;;;;3.60;3.00;;;14.50;99.90;;;;;;4914863;29;20182;-55
2022/06/02 03:38:09;;;;;;;4.43;2.70;;;14.50;99.90;;;;;;4915062;29;20521;-56
2022/06/02 03:40:54;;;;;;;2.97;2.77;;;14.50;99.90;;;;;;4915010;29;20195;-54
2022/06/02 03:43:48;;;;;;;3.77;3.37;;;14.60;99.90;;;;;;4914938;29;20180;-58
2022/06/02 03:46:41;;;;;;;4.93;4.43;;;14.60;99.90;;;;;;5004937;28;20194;-58
2022/06/02 03:49:43;;;;;;;5.40;4.90;;;14.60;99.90;;;;;;5013613;28;20171;-56
2022/06/02 03:52:48;;;;;;;6.10;5.50;;;14.60;99.90;;;;;;5013613;28;20191;-54
2022/06/02 03:55:29;;;;;;;6.40;5.27;;;14.60;99.90;;;;;;5013230;28;20163;-57
2022/06/02 03:58:16;;;;;;;5.10;4.60;;;14.70;99.90;;;;;;5013453;28;20668;-58
2022/06/02 04:00:49;;;;;;;4.77;4.37;;;14.70;99.90;;;;;;5013248;28;20627;-57
2022/06/02 04:03:20;;;;;;;5.17;4.57;;;14.70;99.90;;;;;;5012944;28;20176;-57
2022/06/02 04:06:06;;;;;;;5.10;4.60;;;14.80;99.90;;;;;;5013122;28;20536;-58
2022/06/02 04:08:46;;;;;;;5.13;4.27;;;14.80;99.90;;;;;;5013212;28;20201;-57
2022/06/02 04:13:37;;;;;;;3.40;3.10;;;14.90;99.90;;;;;;5008486;28;20749;-57
2022/06/02 04:14:28;;;;;;;3.23;3.03;;;15.00;99.90;;;;;;4993239;28;20231;-58
2022/06/02 04:17:01;;;;;;;3.77;3.40;;;15.00;99.90;;;;;;5015330;28;20184;-59
2022/06/02 04:22:31;;;;;;;3.20;2.93;;;15.10;99.90;;;;;;5013063;28;20230;-58
2022/06/02 04:25:15;;;;;;;3.40;3.20;;;15.10;99.90;;;;;;4993203;28;20173;-57
2022/06/02 04:27:49;;;;;;;4.10;3.70;;;15.00;99.90;;;;;;4996796;28;20244;-57
2022/06/02 04:30:26;;;;;;;3.90;3.60;;;15.00;99.90;;;;;;5019186;28;20205;-57
2022/06/02 04:33:09;;;;;;;4.77;3.90;;;15.00;99.90;;;;;;5012847;28;20175;-56
2022/06/02 04:35:41;;;;;;;4.53;3.47;;;15.10;99.90;;;;;;5024973;28;20175;-57
2022/06/02 04:38:09;;;;;;;4.63;4.23;;;15.20;99.90;;;;;;5026705;28;20183;-52
2022/06/02 04:41:11;;;;;;;5.73;4.60;;;15.30;99.90;;;;;;5001784;28;20199;-53
2022/06/02 04:43:58;;;;;;;4.30;4.00;;;15.40;99.90;;;;;;4970867;28;20180;-57
2022/06/02 04:46:42;;;;;;;5.13;4.57;;;15.30;99.90;;;;;;4970065;28;20174;-56
2022/06/02 04:49:33;;;;;;;5.60;4.47;;;15.40;99.90;;;;;;4951798;29;20194;-54
2022/06/02 04:52:11;;;;;;;5.40;4.90;;;15.40;99.90;;;;;;4952289;29;20548;-54
2022/06/02 04:54:41;;;;;;;4.33;3.93;;;15.50;99.90;;;;;;4951482;29;20183;-57
2022/06/02 04:57:25;;;;;;;4.73;3.90;;;15.60;99.90;;;;;;4951811;29;20187;-55
2022/06/02 05:00:12;;;;;;;3.77;3.47;;;15.70;99.90;;;;;;4951360;29;20249;-57
2022/06/02 05:02:43;;;;;;;3.67;3.37;;;15.80;99.90;;;;;;4951687;29;20218;-57
2022/06/02 05:05:32;;;;;;;4.27;3.97;;;15.80;99.90;;;;;;4951333;29;20197;-56
2022/06/02 05:08:03;;;;;;;4.60;4.20;;;15.80;99.90;;;;;;4951606;29;20561;-57
2022/06/02 05:10:49;;;;;;;5.10;4.10;;;15.80;99.90;;;;;;4947525;28;20701;-57
2022/06/02 05:13:23;;;;;;;4.40;4.00;;;15.80;99.90;;;;;;4951607;29;20274;-54
2022/06/02 05:16:03;;;;;;;4.00;3.60;;;15.80;99.90;;;;;;4950526;28;20186;-56
2022/06/02 05:18:53;;;;;;;5.37;3.90;;;15.90;99.90;;;;;;4951420;29;20217;-56
2022/06/02 05:21:21;;;;;;;3.60;3.30;;;15.80;99.90;;;;;;4989511;28;20214;-57
2022/06/02 05:24:14;;;;;;;3.70;3.40;;;15.90;99.90;;;;;;4992337;28;20173;-57
2022/06/02 05:27:04;;;;;;;6.37;3.93;;;16.00;99.90;;;;;;4992256;28;20237;-55
2022/06/02 05:29:59;;;;;;;3.90;3.60;;;17.60;99.90;;;;;;4992190;28;20200;-57
2022/06/02 05:32:42;;;;;;;3.70;3.40;;;16.20;99.90;;;;;;4992337;28;20232;-56
2022/06/02 05:35:13;;;;;;;3.23;3.00;;;16.30;99.90;;;;;;5004770;28;20180;-56
2022/06/02 05:37:51;;;;;;;3.47;3.23;;;16.30;99.90;;;;;;5006097;28;20203;-57
2022/06/02 05:40:38;;;;;;;4.73;3.50;;;16.30;99.90;;;;;;5010996;28;20204;-55
2022/06/02 05:43:12;;;;;;;3.93;3.63;;;16.30;99.90;;;;;;5009949;28;20212;-59
2022/06/02 05:46:19;;;;;;;4.20;3.80;;;16.40;99.90;;;;;;5011404;28;20169;-57
2022/06/02 05:48:56;;;;;;;4.00;3.53;;;16.50;99.90;;;;;;4992457;28;20264;-57
2022/06/02 05:51:24;;;;;;;3.60;3.30;;;16.60;99.90;;;;;;5008156;28;20716;-56
2022/06/02 05:54:17;;;;;;;3.67;3.37;;;16.70;99.90;;;;;;4995787;28;20177;-54
2022/06/02 05:57:28;;;;;;;3.97;3.67;;;16.90;99.90;;;;;;4992943;28;20566;-56
2022/06/02 06:00:05;;;;;;;3.67;3.37;;;17.00;99.90;;;;;;4957571;28;20297;-52
2022/06/02 06:02:51;;;;;;;4.00;3.60;;;17.00;99.90;;;;;;4955048;28;20321;-53
2022/06/02 06:05:38;;;;;;;4.40;3.70;;;17.00;99.90;;;;;;4950698;29;20675;-54
2022/06/02 06:08:24;;;;;;;3.77;3.47;;;17.10;99.90;;;;;;4950883;28;20183;-54
2022/06/02 06:11:13;;;;;;;3.63;3.33;;;17.10;99.90;;;;;;4950886;28;20716;-52
2022/06/02 06:13:57;;;;;;;4.20;3.83;;;17.10;99.90;;;;;;4950533;28;20197;-52
2022/06/02 06:16:30;;;;;;;4.97;3.97;;;17.00;99.90;;;;;;4950806;29;20201;-57
2022/06/02 06:19:11;;;;;;;5.23;4.20;;;16.90;99.90;;;;;;4950725;29;20249;-56
2022/06/02 06:21:45;;;;;;;4.30;4.00;;;16.70;99.90;;;;;;4950930;29;20269;-53
2022/06/02 06:24:35;;;;;;;5.33;4.60;;;16.70;99.90;;;;;;4950464;29;20186;-53
2022/06/02 06:27:22;;;;;;;4.90;4.50;;;16.70;99.90;;;;;;4953110;28;20626;-53
2022/06/02 06:30:07;;;;;;;4.23;3.83;;;16.90;99.90;;;;;;4954361;29;20214;-53
2022/06/02 06:33:04;;;;;;;4.60;4.17;;;16.90;99.90;;;;;;4954508;29;20190;-56
2022/06/02 06:35:45;;;;;;;5.00;4.53;;;16.90;99.90;;;;;;4965487;28;20231;-54
2022/06/02 06:38:23;;;;;;;4.77;4.37;;;17.00;99.90;;;;;;4995211;28;20261;-59
2022/06/02 06:41:00;;;;;;;4.90;4.50;;;17.00;99.90;;;;;;4995195;28;20194;-56
2022/06/02 06:43:36;;;;;;;5.00;4.40;;;17.00;99.90;;;;;;4995111;28;20177;-57
2022/06/02 06:46:20;;;;;;;4.50;4.10;;;17.10;99.90;;;;;;4995223;28;20171;-55
2022/06/02 06:48:55;;;;;;;6.00;4.60;;;17.10;99.90;;;;;;4995116;28;20185;-58
2022/06/02 06:52:16;;;;;;;5.27;4.10;;;17.00;99.90;;;;;;4995122;28;20220;-57
2022/06/02 06:55:18;;;;;;;4.73;4.33;;;17.10;99.90;;;;;;4961788;28;20212;-55
2022/06/02 06:57:49;;;;;;;4.53;4.13;;;17.30;99.90;;;;;;4995006;28;20185;-59
2022/06/02 07:00:19;;;;;;;4.50;4.20;;;17.50;99.90;;;;;;4994673;28;20261;-57
2022/06/02 07:02:56;;;;;;;4.33;3.93;;;17.60;99.90;;;;;;4994993;28;20186;-57
2022/06/02 07:05:49;;;;;;;4.80;4.40;;;17.80;99.90;;;;;;4994667;28;20178;-57
2022/06/02 07:08:38;;;;;;;4.50;4.10;;;18.00;99.90;;;;;;4994783;28;20165;-55
2022/06/02 07:14:49;;;;;;;5.07;4.60;;;18.30;99.90;;;;;;4994761;28;20590;-56
2022/06/02 07:17:52;;;;;;;4.90;4.50;;;18.40;99.90;;;;;;4994145;28;20212;-56
2022/06/02 07:20:36;;;;;;;4.50;4.10;;;18.30;99.90;;;;;;4994459;28;20211;-55
2022/06/02 07:23:22;;;;;;;5.10;4.70;;;18.30;99.90;;;;;;4994733;28;20184;-57
2022/06/02 07:26:22;;;;;;;4.30;3.90;;;18.40;99.90;;;;;;4994628;28;20680;-53
2022/06/02 07:28:54;;;;;;;5.03;4.53;;;18.60;99.90;;;;;;4994462;28;20272;-52
2022/06/02 07:31:35;;;;;;;5.03;4.60;;;18.70;99.90;;;;;;4994427;28;20662;-51
2022/06/02 07:34:21;;;;;;;5.17;4.40;;;18.90;99.90;;;;;;4994125;28;20173;-57
2022/06/02 07:36:55;;;;;;;5.03;4.53;;;18.90;99.90;;;;;;4994315;28;20667;-55
2022/06/02 07:39:51;;;;;;;4.97;4.47;;;18.00;99.90;;;;;;4993437;28;20566;-55
2022/06/02 07:42:31;;;;;;;4.73;4.33;;;18.80;99.90;;;;;;4994305;28;20166;-55
2022/06/02 07:45:42;;;;;;;5.13;4.73;;;18.80;99.90;;;;;;4993960;28;20532;-51
2022/06/02 07:48:10;;;;;;;5.23;4.83;;;18.80;99.90;;;;;;4936094;29;20704;-57
2022/06/02 07:50:41;;;;;;;5.20;4.73;;;18.90;99.90;;;;;;4940845;29;20224;-53
2022/06/02 07:53:42;;;;;;;5.00;4.60;;;19.10;99.90;;;;;;4933794;29;20230;-54
2022/06/02 07:56:49;;;;;;;5.07;4.60;;;19.30;99.90;;;;;;4876838;29;20189;-53
2022/06/02 07:59:43;;;;;;;5.10;4.60;;;19.30;99.90;;;;;;4803447;29;20298;-55
2022/06/02 08:02:16;;;;;;;5.03;4.53;;;19.30;99.90;;;;;;5037158;22;20285;-49
2022/06/02 08:05:00;;;;;;;4.70;4.30;;;19.50;99.90;;;;;;5033544;28;20175;-55
2022/06/02 08:07:41;;;;;;;5.03;4.50;;;19.60;99.90;;;;;;5052682;28;20254;-55
2022/06/02 08:10:19;;;;;;;4.80;4.40;;;19.60;99.90;;;;;;5052762;28;20242;-52
2022/06/02 08:13:06;;;;;;;4.60;4.17;;;19.50;99.90;;;;;;5011155;28;21480;-52
2022/06/02 08:16:06;;;;;;;5.13;4.63;;;19.50;99.90;;;;;;5031862;28;20179;-56
2022/06/02 08:18:43;;;;;;;4.40;4.00;;;19.70;99.90;;;;;;5028005;28;20230;-56
2022/06/02 08:21:16;;;;;;;4.80;3.80;;;19.80;99.90;;;;;;5032465;28;20214;-52
2022/06/02 08:24:20;;;;;;;6.57;4.67;;;20.00;99.90;;;;;;5032313;28;20572;-52
2022/06/02 08:27:00;;;;;;;4.93;4.43;;;19.90;99.90;;;;;;5032431;28;20254;-55
2022/06/02 08:29:56;;;;;;;4.57;4.17;;;19.70;99.90;;;;;;5032319;28;20175;-52
2022/06/02 08:32:43;;;;;;;4.63;4.20;;;19.50;99.90;;;;;;5032451;28;20573;-57
2022/06/02 08:35:23;;;;;;;5.03;4.53;;;19.60;99.90;;;;;;5031910;28;20176;-54
2022/06/02 08:38:22;;;;;;;5.07;4.50;;;19.70;99.90;;;;;;5032201;28;20235;-51
2022/06/02 08:41:33;;;;;;;5.00;4.50;;;19.80;99.90;;;;;;5029626;28;20233;-53
2022/06/02 08:44:32;;;;;;;4.90;4.50;;;19.90;99.90;;;;;;5031819;28;20180;-54
2022/06/02 08:47:35;;;;;;;4.90;4.40;;;20.00;99.90;;;;;;5032063;28;20186;-53
2022/06/02 08:50:10;;;;;;;4.63;4.20;;;20.20;99.90;;;;;;5031774;28;20251;-55
2022/06/02 08:53:12;;;;;;;5.23;4.63;;;20.20;99.90;;;;;;5031914;28;20274;-53
2022/06/02 08:55:59;;;;;;;8.57;4.47;;;20.20;99.90;;;;;;5031712;28;20269;-51
2022/06/02 08:58:55;;;;;;;4.90;4.30;;;20.20;99.90;;;;;;5031862;28;20254;-51
2022/06/02 09:01:46;;;;;;;4.10;3.70;;;20.10;99.90;;;;;;5028418;28;20239;-55
2022/06/02 09:04:30;;;;;;;4.77;4.37;;;20.30;99.90;;;;;;5027922;28;20641;-53
2022/06/02 09:07:14;;;;;;;5.50;4.43;;;20.60;99.90;;;;;;5013122;28;20180;-54
2022/06/02 09:10:06;;;;;;;4.90;4.40;;;20.70;99.90;;;;;;5023372;28;20199;-50
2022/06/02 09:13:04;;;;;;;4.33;3.77;;;20.60;99.90;;;;;;4927421;29;20208;-55
2022/06/02 09:15:58;;;;;;;4.60;4.20;;;20.70;99.90;;;;;;4931595;29;20207;-54
2022/06/02 09:19:00;;;;;;;4.40;4.00;;;20.70;99.90;;;;;;4931558;29;20293;-51
2022/06/02 09:21:32;;;;;;;4.30;3.90;;;20.80;99.90;;;;;;4931695;29;20191;-54
2022/06/02 09:24:22;;;;;;;4.05;3.65;;;20.80;99.90;;;;;;4931428;29;20194;-51
2022/06/02 09:26:47;;;;;;;3.70;3.10;;;21.10;99.90;;;;;;4931845;29;20201;-53
2022/06/02 09:29:20;;;;;;;4.13;3.65;;;21.20;99.90;;;;;;4931530;29;20773;-51
2022/06/02 09:32:05;;;;;;;3.47;3.25;;;21.20;99.90;;;;;;4931948;29;20678;-52
2022/06/02 09:34:41;;;;;;;3.58;3.28;;;21.10;99.90;;;;;;4929470;29;20187;-52
2022/06/02 09:37:27;;;;;;;3.45;3.10;;;21.30;99.90;;;;;;4931531;29;20196;-51
2022/06/02 09:40:19;;;;;;;4.03;3.53;;;21.50;99.90;;;;;;4926661;29;20273;-49
2022/06/02 09:42:47;;;;;;;3.33;3.03;;;21.70;99.90;;;;;;4931251;29;20190;-49
2022/06/02 09:45:48;;;;;;;4.25;3.85;;;21.40;99.90;;;;;;4931301;29;20177;-49
2022/06/02 09:48:35;;;;;;;3.97;2.90;;;21.40;99.90;;;;;;4931706;29;20178;-50
2022/06/02 09:51:23;;;;;;;5.72;3.20;;;21.60;99.90;;;;;;5030724;28;20199;-50
2022/06/02 09:54:33;;;;;;;3.13;2.83;;;21.60;99.90;;;;;;4969755;28;20188;-51
2022/06/02 10:00:39;;;;;;;3.83;2.67;;;21.70;99.90;;;;;;4956202;28;20240;-56
2022/06/02 10:03:42;;;;;;;5.07;2.95;;;21.80;99.90;;;;;;4974203;28;20170;-53
2022/06/02 10:06:29;;;;;;;2.63;2.42;;;21.90;99.90;;;;;;4973942;28;20259;-55
2022/06/02 10:09:19;;;;;;;3.95;2.85;;;22.10;99.90;;;;;;4970861;28;20529;-53
2022/06/02 10:15:40;;;;;;;5.05;2.33;;;22.80;99.90;;;;;;4973792;28;20595;-50
2022/06/02 10:18:09;;;;;;;4.60;1.90;;;22.70;99.90;;;;;;4973509;28;20237;-52
2022/06/02 10:20:48;;;;;;;2.58;1.70;;;22.80;99.90;;;;;;4973548;28;20664;-54
2022/06/02 10:23:39;;;;;;;2.35;1.80;;;22.70;99.90;;;;;;4973753;28;20205;-52
2022/06/02 10:26:23;;;;;;;3.50;1.50;;;22.70;99.90;;;;;;4973800;28;20158;-50
2022/06/02 10:29:10;;;;;;;2.95;1.67;;;22.80;99.90;;;;;;4973524;28;20233;-52
2022/06/02 10:32:10;;;;;;;2.30;2.10;;;22.80;99.90;;;;;;5021574;28;20222;-55
2022/06/02 10:35:24;;;;;;;1.75;1.65;;;23.10;99.90;;;;;;5034085;28;20172;-54
2022/06/02 10:37:55;;;;;;;2.22;1.92;;;23.10;99.90;;;;;;5034429;28;20198;-55
2022/06/02 10:40:32;;;;;;;3.35;1.90;;;23.40;99.90;;;;;;5034261;28;20203;-52
2022/06/02 10:43:12;;;;;;;5.22;3.05;;;23.50;99.90;;;;;;5034409;28;20186;-53
2022/06/02 10:46:13;;;;;;;3.35;1.90;;;23.60;99.90;;;;;;5026912;28;20390;-55
2022/06/02 10:49:11;;;;;;;3.03;2.30;;;24.00;99.90;;;;;;5033840;28;20207;-52
2022/06/02 10:51:58;;;;;;;2.20;2.00;;;24.40;99.90;;;;;;5034479;28;20683;-54
2022/06/02 10:54:43;;;;;;;2.90;2.08;;;24.70;99.90;;;;;;5034347;28;20221;-51
2022/06/02 10:57:11;;;;;;;3.83;2.42;;;24.70;99.90;;;;;;5034487;28;20243;-50
2022/06/02 10:59:55;;;;;;;3.17;1.70;;;24.80;99.90;;;;;;5033964;28;20196;-54
2022/06/02 11:03:10;;;;;;;2.50;1.90;;;25.00;99.60;;;;;;5034096;28;20230;-50
2022/06/02 11:06:04;;;;;;;2.67;1.88;;;25.20;98.70;;;;;;4992075;28;20181;-56
2022/06/02 11:09:02;;;;;;;2.15;1.95;;;25.10;99.90;;;;;;4991547;28;20180;-58
2022/06/02 11:11:46;;;;;;;2.20;1.80;;;25.00;99.90;;;;;;4992369;28;20252;-51
2022/06/02 11:14:45;;;;;;;1.90;1.70;;;24.90;97.30;;;;;;4989758;28;20201;-57
2022/06/02 11:17:44;;;;;;;2.10;1.83;;;24.70;98.40;;;;;;4990126;28;20692;-55
2022/06/02 11:20:35;;;;;;;2.10;1.92;;;24.70;97.90;;;;;;4983929;28;20196;-52
2022/06/02 11:23:31;;;;;;;2.20;2.10;;;24.60;99.00;;;;;;4992256;28;20255;-56
2022/06/02 11:26:14;;;;;;;2.20;1.80;;;24.60;98.10;;;;;;4992112;28;20193;-55
2022/06/02 11:29:17;;;;;;;3.17;2.03;;;24.60;98.50;;;;;;4992020;28;20193;-53
2022/06/02 11:31:48;;;;;;;2.28;2.00;;;24.90;99.10;;;;;;4991931;28;20260;-57
2022/06/02 11:34:44;;;;;;;3.20;1.95;;;25.00;99.90;;;;;;4991788;28;20177;-55
2022/06/02 11:37:27;;;;;;;2.78;1.95;;;24.90;99.40;;;;;;4991930;28;20185;-53
2022/06/02 11:40:26;;;;;;;2.10;2.00;;;24.70;98.90;;;;;;4991821;28;20203;-56
2022/06/02 11:43:16;;;;;;;2.53;1.70;;;24.80;98.70;;;;;;5019777;28;20185;-55
2022/06/02 11:46:04;;;;;;;3.03;1.50;;;25.10;99.10;;;;;;5033249;28;20691;-53
2022/06/02 11:49:23;;;;;;;2.20;1.70;;;25.50;99.90;;;;;;5033295;28;20168;-55
2022/06/02 11:51:51;;;;;;;2.75;1.90;;;26.10;99.90;;;;;;4985278;28;20257;-57
2022/06/02 11:54:29;;;;;;;1.80;1.70;;;26.10;99.00;;;;;;4988567;28;20854;-58
2022/06/02 11:57:01;;;;;;;2.08;1.83;;;26.30;98.00;;;;;;4990561;28;20208;-58
2022/06/02 12:00:06;;;;;;;1.60;1.50;;;26.50;98.10;;;;;;4991492;28;20240;-55
2022/06/02 12:03:09;;;;;;;1.45;1.35;;;26.20;97.10;;;;;;4991288;28;20350;-58
2022/06/02 12:06:12;;;;;;;1.90;1.50;;;26.10;96.60;;;;;;4991213;28;20697;-55
2022/06/02 12:08:43;;;;;;;1.35;1.10;;;26.10;94.30;;;;;;4991412;28;20278;-53
2022/06/02 12:11:14;;;;;;;1.50;1.40;;;25.80;93.10;;;;;;4991184;28;20256;-57
2022/06/02 12:14:13;;;;;;;3.17;1.58;;;25.80;95.10;;;;;;4990925;28;20267;-56
2022/06/02 12:17:03;;;;;;;2.60;1.65;;;26.20;95.90;;;;;;4991151;28;20158;-54
2022/06/02 12:20:01;;;;;;;1.52;1.23;;;26.30;93.90;;;;;;4990982;28;20238;-57
2022/06/02 12:22:54;;;;;;;2.88;1.55;;;25.90;93.20;;;;;;4991109;28;20272;-54
2022/06/02 12:25:46;;;;;;;2.13;1.55;;;25.70;92.90;;;;;;4988635;28;20184;-53
2022/06/02 12:28:26;;;;;;;1.70;1.60;;;25.50;93.10;;;;;;5032753;28;20529;-55
2022/06/02 12:31:13;;;;;;;1.67;1.30;;;25.40;94.10;;;;;;5032534;28;20195;-54
2022/06/02 12:34:12;;;;;;;1.52;1.20;;;25.40;94.40;;;;;;5027524;28;20184;-51
2022/06/02 12:36:58;;;;;;;3.95;2.55;;;25.50;94.60;;;;;;5027073;28;20711;-57
2022/06/02 12:39:50;;;;;;;1.95;1.30;;;25.60;93.80;;;;;;5030358;28;20665;-52
2022/06/02 12:43:10;;;;;;;1.58;1.48;;;25.80;95.50;;;;;;5025177;28;20200;-51
2022/06/02 12:45:46;;;;;;;1.90;1.60;;;26.00;94.00;;;;;;4951576;29;20178;-54
2022/06/02 12:48:41;;;;;;;2.05;1.20;;;26.30;96.70;;;;;;5004287;28;20185;-50
2022/06/02 12:51:09;;;;;;;3.28;1.50;;;26.70;94.70;;;;;;5012541;28;20215;-51
2022/06/02 12:54:04;;;;;;;1.70;1.60;;;27.00;96.20;;;;;;5012127;28;20661;-53
2022/06/02 12:56:31;;;;;;;4.07;1.70;;;27.40;96.10;;;;;;5012371;28;20181;-49
2022/06/02 12:59:15;;;;;;;2.45;1.30;;;27.70;94.90;;;;;;5012139;28;20265;-54
2022/06/02 13:01:58;;;;;;;2.53;1.60;;;27.80;95.00;;;;;;5012139;28;20266;-51
2022/06/02 13:04:51;;;;;;;2.58;1.42;;;27.70;91.50;;;;;;5012086;28;20195;-53
2022/06/02 13:07:56;;;;;;;1.55;1.45;;;27.30;93.00;;;;;;5012344;28;20188;-50
2022/06/02 13:10:38;;;;;;;2.20;1.42;;;27.50;95.30;;;;;;5012090;28;20179;-53
2022/06/02 13:13:30;;;;;;;3.92;1.60;;;27.60;95.70;;;;;;5012237;28;20169;-54
2022/06/02 13:16:05;;;;;;;1.77;1.60;;;27.80;95.90;;;;;;5012134;28;20165;-55
2022/06/02 13:18:42;;;;;;;2.10;1.83;;;27.90;93.00;;;;;;5011759;28;20200;-55
2022/06/02 13:21:45;;;;;;;1.83;1.65;;;28.10;92.70;;;;;;5011928;28;20203;-52
2022/06/02 13:24:34;;;;;;;1.73;1.58;;;28.40;94.30;;;;;;5011665;28;20179;-54
2022/06/02 13:27:18;;;;;;;1.55;1.40;;;28.20;93.80;;;;;;5011898;28;20260;-55
2022/06/02 13:29:59;;;;;;;2.38;1.60;;;28.20;94.00;;;;;;5011593;28;20267;-53
2022/06/02 13:32:36;;;;;;;3.08;1.60;;;28.30;91.80;;;;;;5011789;28;20537;-51
2022/06/02 13:35:24;;;;;;;1.80;1.60;;;28.30;92.30;;;;;;5024423;28;20179;-55
2022/06/02 13:38:22;;;;;;;1.42;1.33;;;28.10;92.80;;;;;;5025546;28;20301;-57
2022/06/02 13:41:04;;;;;;;2.20;1.50;;;28.30;92.20;;;;;;5015748;28;20232;-57
2022/06/02 13:43:42;;;;;;;1.90;1.45;;;28.40;91.60;;;;;;5031249;28;20155;-54
2022/06/02 13:46:33;;;;;;;1.50;1.40;;;28.40;93.20;;;;;;5031792;28;20602;-56
2022/06/02 13:49:14;;;;;;;2.95;1.52;;;28.50;92.40;;;;;;5031309;28;20661;-54
2022/06/02 13:51:57;;;;;;;1.67;1.45;;;28.30;92.80;;;;;;5031424;28;20215;-55
2022/06/02 13:57:57;;;;;;;2.55;1.40;;;28.50;90.90;;;;;;5031375;28;20187;-56
2022/06/02 14:00:24;;;;;;;3.00;1.40;;;28.60;91.00;;;;;;5031041;28;20298;-56
2022/06/02 14:03:02;;;;;;;1.52;1.42;;;28.60;91.30;;;;;;5088500;22;20231;-58
2022/06/02 14:06:08;;;;;;;1.92;1.70;;;28.70;91.70;;;;;;5030143;28;20172;-58
2022/06/02 14:08:36;;;;;;;1.05;1.05;;;28.80;90.50;;;;;;5028284;28;20538;-56
2022/06/02 14:11:25;;;;;;;1.60;1.50;;;28.80;90.10;;;;;;5026707;28;20681;-53
2022/06/02 14:14:12;;;;;;;1.98;1.65;;;28.80;90.50;;;;;;5010891;28;20196;-57
2022/06/02 14:16:55;;;;;;;1.40;1.30;;;28.70;90.70;;;;;;5010920;28;20283;-54
2022/06/02 14:19:51;;;;;;;1.35;1.23;;;28.50;90.90;;;;;;5011178;28;20209;-54
2022/06/02 14:22:29;;;;;;;1.60;1.50;;;28.30;88.20;;;;;;5011101;28;20195;-55
2022/06/02 14:25:16;;;;;;;2.03;1.70;;;28.20;90.20;;;;;;5010777;28;20176;-55
2022/06/02 14:28:08;;;;;;;1.50;1.40;;;28.10;89.10;;;;;;5004648;28;20280;-56
2022/06/02 14:30:52;;;;;;;1.45;1.30;;;27.70;85.10;;;;;;5011198;28;20223;-54
2022/06/02 14:33:27;;;;;;;1.27;1.25;;;27.40;90.30;;;;;;5011080;28;20727;-58
2022/06/02 14:35:55;;;;;;;3.05;1.13;;;27.30;90.80;;;;;;5010843;28;20172;-53
2022/06/02 14:38:39;;;;;;;1.20;1.10;;;27.40;88.80;;;;;;5011147;28;20173;-54
2022/06/02 14:41:28;;;;;;;1.20;1.10;;;27.40;88.50;;;;;;5010993;28;20169;-53
2022/06/02 14:44:13;;;;;;;1.13;1.02;;;27.20;88.40;;;;;;5010487;28;20169;-56
2022/06/02 14:47:07;;;;;;;2.10;1.45;;;27.10;90.50;;;;;;5011304;28;20176;-57